sensor_id;sensor_type;location;lat;lon;timestamp;P1;durP1;ratioP1;P2;durP2;ratioP2
8361;SDS011;4218;48.326;14.304;2024-01-30T00:00:19;22.13;;;20.07;;
8361;SDS011;4218;48.326;14.304;2024-01-30T00:02:48;16.93;;;15.33;;
8361;SDS011;4218;48.326;14.304;2024-01-30T00:05:20;19.40;;;17.50;;
8361;SDS011;4218;48.326;14.304;2024-01-30T00:07:56;19.00;;;17.30;;
8361;SDS011;4218;48.326;14.304;2024-01-30T00:10:44;16.87;;;15.23;;
8361;SDS011;4218;48.326;14.304;2024-01-30T00:13:13;16.63;;;15.13;;
8361;SDS011;4218;48.326;14.304;2024-01-30T00:15:44;16.10;;;14.47;;
8361;SDS011;4218;48.326;14.304;2024-01-30T00:18:09;17.50;;;16.00;;
8361;SDS011;4218;48.326;14.304;2024-01-30T00:20:35;18.77;;;16.97;;
8361;SDS011;4218;48.326;14.304;2024-01-30T00:23:11;16.27;;;14.87;;
8361;SDS011;4218;48.326;14.304;2024-01-30T00:25:49;14.97;;;13.77;;
8361;SDS011;4218;48.326;14.304;2024-01-30T00:28:27;19.27;;;16.20;;
8361;SDS011;4218;48.326;14.304;2024-01-30T00:30:58;17.00;;;15.60;;
8361;SDS011;4218;48.326;14.304;2024-01-30T00:33:32;17.77;;;16.30;;
8361;SDS011;4218;48.326;14.304;2024-01-30T00:36:07;22.20;;;20.33;;
8361;SDS011;4218;48.326;14.304;2024-01-30T00:38:40;19.03;;;17.27;;
8361;SDS011;4218;48.326;14.304;2024-01-30T00:41:07;19.00;;;17.43;;
8361;SDS011;4218;48.326;14.304;2024-01-30T00:43:38;16.63;;;15.10;;
8361;SDS011;4218;48.326;14.304;2024-01-30T00:46:03;22.77;;;21.10;;
8361;SDS011;4218;48.326;14.304;2024-01-30T00:48:29;18.93;;;17.40;;
8361;SDS011;4218;48.326;14.304;2024-01-30T00:51:01;24.33;;;19.33;;
8361;SDS011;4218;48.326;14.304;2024-01-30T00:53:37;22.53;;;20.63;;
8361;SDS011;4218;48.326;14.304;2024-01-30T00:56:29;19.13;;;17.37;;
8361;SDS011;4218;48.326;14.304;2024-01-30T00:59:08;21.57;;;19.93;;
8361;SDS011;4218;48.326;14.304;2024-01-30T01:01:41;22.20;;;20.47;;
8361;SDS011;4218;48.326;14.304;2024-01-30T01:04:15;16.20;;;14.80;;
8361;SDS011;4218;48.326;14.304;2024-01-30T01:06:40;19.20;;;17.70;;
8361;SDS011;4218;48.326;14.304;2024-01-30T01:09:13;17.87;;;16.20;;
8361;SDS011;4218;48.326;14.304;2024-01-30T01:11:44;18.83;;;17.20;;
8361;SDS011;4218;48.326;14.304;2024-01-30T01:14:25;15.30;;;13.70;;
8361;SDS011;4218;48.326;14.304;2024-01-30T01:17:18;16.43;;;14.93;;
8361;SDS011;4218;48.326;14.304;2024-01-30T01:20:15;15.97;;;14.63;;
8361;SDS011;4218;48.326;14.304;2024-01-30T01:22:41;15.40;;;14.00;;
8361;SDS011;4218;48.326;14.304;2024-01-30T01:25:09;17.37;;;15.23;;
8361;SDS011;4218;48.326;14.304;2024-01-30T01:27:40;16.87;;;15.47;;
8361;SDS011;4218;48.326;14.304;2024-01-30T01:30:10;18.70;;;16.90;;
8361;SDS011;4218;48.326;14.304;2024-01-30T01:32:57;17.63;;;16.03;;
8361;SDS011;4218;48.326;14.304;2024-01-30T01:35:26;17.80;;;16.00;;
8361;SDS011;4218;48.326;14.304;2024-01-30T01:37:52;19.10;;;17.47;;
8361;SDS011;4218;48.326;14.304;2024-01-30T01:40:26;16.23;;;14.67;;
8361;SDS011;4218;48.326;14.304;2024-01-30T01:43:08;19.03;;;16.60;;
8361;SDS011;4218;48.326;14.304;2024-01-30T01:45:36;18.80;;;15.43;;
8361;SDS011;4218;48.326;14.304;2024-01-30T01:48:11;18.07;;;16.43;;
8361;SDS011;4218;48.326;14.304;2024-01-30T01:50:45;17.63;;;15.93;;
8361;SDS011;4218;48.326;14.304;2024-01-30T01:53:17;18.07;;;16.47;;
8361;SDS011;4218;48.326;14.304;2024-01-30T01:55:54;17.27;;;15.70;;
8361;SDS011;4218;48.326;14.304;2024-01-30T01:58:27;17.73;;;16.13;;
8361;SDS011;4218;48.326;14.304;2024-01-30T02:01:22;17.80;;;16.13;;
8361;SDS011;4218;48.326;14.304;2024-01-30T02:04:04;17.10;;;15.37;;
8361;SDS011;4218;48.326;14.304;2024-01-30T02:06:40;20.00;;;16.83;;
8361;SDS011;4218;48.326;14.304;2024-01-30T02:09:16;19.07;;;17.33;;
8361;SDS011;4218;48.326;14.304;2024-01-30T02:11:45;21.30;;;18.10;;
8361;SDS011;4218;48.326;14.304;2024-01-30T02:14:23;22.23;;;18.27;;
8361;SDS011;4218;48.326;14.304;2024-01-30T02:16:48;18.33;;;16.17;;
8361;SDS011;4218;48.326;14.304;2024-01-30T02:19:36;18.10;;;16.33;;
8361;SDS011;4218;48.326;14.304;2024-01-30T02:22:05;18.83;;;17.03;;
8361;SDS011;4218;48.326;14.304;2024-01-30T02:24:44;17.23;;;15.83;;
8361;SDS011;4218;48.326;14.304;2024-01-30T02:27:16;15.90;;;14.30;;
8361;SDS011;4218;48.326;14.304;2024-01-30T02:30:11;17.50;;;15.70;;
8361;SDS011;4218;48.326;14.304;2024-01-30T02:32:39;18.03;;;16.37;;
8361;SDS011;4218;48.326;14.304;2024-01-30T02:35:13;18.93;;;17.17;;
8361;SDS011;4218;48.326;14.304;2024-01-30T02:37:41;20.40;;;18.67;;
8361;SDS011;4218;48.326;14.304;2024-01-30T02:40:13;17.30;;;15.37;;
8361;SDS011;4218;48.326;14.304;2024-01-30T02:42:50;17.57;;;16.03;;
8361;SDS011;4218;48.326;14.304;2024-01-30T02:45:23;20.63;;;19.00;;
8361;SDS011;4218;48.326;14.304;2024-01-30T02:47:50;17.60;;;16.07;;
8361;SDS011;4218;48.326;14.304;2024-01-30T02:50:18;17.43;;;15.73;;
8361;SDS011;4218;48.326;14.304;2024-01-30T02:52:56;19.23;;;17.37;;
8361;SDS011;4218;48.326;14.304;2024-01-30T02:55:26;17.93;;;16.13;;
8361;SDS011;4218;48.326;14.304;2024-01-30T02:57:56;17.30;;;15.53;;
8361;SDS011;4218;48.326;14.304;2024-01-30T03:00:27;19.83;;;17.27;;
8361;SDS011;4218;48.326;14.304;2024-01-30T03:02:59;18.50;;;16.80;;
8361;SDS011;4218;48.326;14.304;2024-01-30T03:05:32;17.50;;;15.90;;
8361;SDS011;4218;48.326;14.304;2024-01-30T03:08:23;20.60;;;18.53;;
8361;SDS011;4218;48.326;14.304;2024-01-30T03:10:55;18.77;;;17.10;;
8361;SDS011;4218;48.326;14.304;2024-01-30T03:13:31;19.63;;;17.80;;
8361;SDS011;4218;48.326;14.304;2024-01-30T03:16:08;16.87;;;15.53;;
8361;SDS011;4218;48.326;14.304;2024-01-30T03:18:43;18.93;;;17.17;;
8361;SDS011;4218;48.326;14.304;2024-01-30T03:21:14;20.77;;;19.17;;
8361;SDS011;4218;48.326;14.304;2024-01-30T03:23:48;17.73;;;15.93;;
8361;SDS011;4218;48.326;14.304;2024-01-30T03:26:19;18.03;;;16.33;;
8361;SDS011;4218;48.326;14.304;2024-01-30T03:28:50;22.30;;;20.50;;
8361;SDS011;4218;48.326;14.304;2024-01-30T03:31:24;22.23;;;19.60;;
8361;SDS011;4218;48.326;14.304;2024-01-30T03:33:50;18.93;;;17.03;;
8361;SDS011;4218;48.326;14.304;2024-01-30T03:36:42;19.67;;;17.67;;
8361;SDS011;4218;48.326;14.304;2024-01-30T03:39:10;18.37;;;16.53;;
8361;SDS011;4218;48.326;14.304;2024-01-30T03:42:03;19.10;;;17.43;;
8361;SDS011;4218;48.326;14.304;2024-01-30T03:47:08;17.53;;;15.90;;
8361;SDS011;4218;48.326;14.304;2024-01-30T03:49:37;18.83;;;16.93;;
8361;SDS011;4218;48.326;14.304;2024-01-30T03:52:03;17.93;;;16.23;;
8361;SDS011;4218;48.326;14.304;2024-01-30T03:54:28;22.63;;;20.67;;
8361;SDS011;4218;48.326;14.304;2024-01-30T03:56:59;20.30;;;18.57;;
8361;SDS011;4218;48.326;14.304;2024-01-30T03:59:30;20.07;;;18.23;;
8361;SDS011;4218;48.326;14.304;2024-01-30T04:01:56;24.37;;;22.47;;
8361;SDS011;4218;48.326;14.304;2024-01-30T04:04:23;21.90;;;18.80;;
8361;SDS011;4218;48.326;14.304;2024-01-30T04:06:49;20.73;;;18.67;;
8361;SDS011;4218;48.326;14.304;2024-01-30T04:09:24;21.60;;;19.67;;
8361;SDS011;4218;48.326;14.304;2024-01-30T04:11:51;24.87;;;19.80;;
8361;SDS011;4218;48.326;14.304;2024-01-30T04:14:20;19.80;;;17.90;;
8361;SDS011;4218;48.326;14.304;2024-01-30T04:16:45;20.50;;;18.40;;
8361;SDS011;4218;48.326;14.304;2024-01-30T04:19:19;22.03;;;18.37;;
8361;SDS011;4218;48.326;14.304;2024-01-30T04:21:50;22.80;;;20.83;;
8361;SDS011;4218;48.326;14.304;2024-01-30T04:24:15;21.83;;;19.73;;
8361;SDS011;4218;48.326;14.304;2024-01-30T04:26:45;19.53;;;17.43;;
8361;SDS011;4218;48.326;14.304;2024-01-30T04:29:11;22.33;;;20.33;;
8361;SDS011;4218;48.326;14.304;2024-01-30T04:31:36;20.40;;;18.20;;
8361;SDS011;4218;48.326;14.304;2024-01-30T04:34:04;24.97;;;22.77;;
8361;SDS011;4218;48.326;14.304;2024-01-30T04:36:31;23.77;;;21.50;;
8361;SDS011;4218;48.326;14.304;2024-01-30T04:38:57;20.90;;;18.93;;
8361;SDS011;4218;48.326;14.304;2024-01-30T04:41:23;20.40;;;18.50;;
8361;SDS011;4218;48.326;14.304;2024-01-30T04:43:49;19.40;;;17.60;;
8361;SDS011;4218;48.326;14.304;2024-01-30T04:46:22;21.20;;;19.20;;
8361;SDS011;4218;48.326;14.304;2024-01-30T04:48:47;22.67;;;20.53;;
8361;SDS011;4218;48.326;14.304;2024-01-30T04:51:13;24.90;;;22.60;;
8361;SDS011;4218;48.326;14.304;2024-01-30T04:53:38;19.37;;;17.40;;
8361;SDS011;4218;48.326;14.304;2024-01-30T04:56:08;24.90;;;18.77;;
8361;SDS011;4218;48.326;14.304;2024-01-30T04:58:33;19.60;;;17.50;;
8361;SDS011;4218;48.326;14.304;2024-01-30T05:01:00;19.53;;;17.63;;
8361;SDS011;4218;48.326;14.304;2024-01-30T05:03:28;18.93;;;17.33;;
8361;SDS011;4218;48.326;14.304;2024-01-30T05:05:53;20.40;;;18.40;;
8361;SDS011;4218;48.326;14.304;2024-01-30T05:08:24;19.67;;;17.87;;
8361;SDS011;4218;48.326;14.304;2024-01-30T05:10:51;19.60;;;17.80;;
8361;SDS011;4218;48.326;14.304;2024-01-30T05:13:16;21.37;;;19.37;;
8361;SDS011;4218;48.326;14.304;2024-01-30T05:15:42;19.00;;;17.20;;
8361;SDS011;4218;48.326;14.304;2024-01-30T05:18:07;18.63;;;16.87;;
8361;SDS011;4218;48.326;14.304;2024-01-30T05:20:33;20.73;;;18.77;;
8361;SDS011;4218;48.326;14.304;2024-01-30T05:23:02;21.57;;;19.67;;
8361;SDS011;4218;48.326;14.304;2024-01-30T05:25:36;22.97;;;20.67;;
8361;SDS011;4218;48.326;14.304;2024-01-30T05:28:03;24.03;;;22.03;;
8361;SDS011;4218;48.326;14.304;2024-01-30T05:30:39;20.33;;;18.20;;
8361;SDS011;4218;48.326;14.304;2024-01-30T05:33:07;21.10;;;19.10;;
8361;SDS011;4218;48.326;14.304;2024-01-30T05:35:57;21.00;;;18.97;;
8361;SDS011;4218;48.326;14.304;2024-01-30T05:38:32;21.43;;;19.70;;
8361;SDS011;4218;48.326;14.304;2024-01-30T05:41:06;21.53;;;19.13;;
8361;SDS011;4218;48.326;14.304;2024-01-30T05:43:43;22.53;;;20.13;;
8361;SDS011;4218;48.326;14.304;2024-01-30T05:46:25;21.67;;;19.60;;
8361;SDS011;4218;48.326;14.304;2024-01-30T05:48:51;21.10;;;19.13;;
8361;SDS011;4218;48.326;14.304;2024-01-30T05:51:25;23.90;;;21.63;;
8361;SDS011;4218;48.326;14.304;2024-01-30T05:53:57;23.83;;;21.90;;
8361;SDS011;4218;48.326;14.304;2024-01-30T05:56:59;22.07;;;19.87;;
8361;SDS011;4218;48.326;14.304;2024-01-30T05:59:51;23.40;;;20.77;;
8361;SDS011;4218;48.326;14.304;2024-01-30T06:05:34;21.80;;;18.63;;
8361;SDS011;4218;48.326;14.304;2024-01-30T06:08:02;22.33;;;20.40;;
8361;SDS011;4218;48.326;14.304;2024-01-30T06:23:33;22.73;;;19.70;;
8361;SDS011;4218;48.326;14.304;2024-01-30T06:50:22;20.27;;;18.27;;
8361;SDS011;4218;48.326;14.304;2024-01-30T06:53:02;28.90;;;25.57;;
8361;SDS011;4218;48.326;14.304;2024-01-30T06:55:51;25.17;;;22.80;;
8361;SDS011;4218;48.326;14.304;2024-01-30T06:58:34;32.77;;;30.47;;
8361;SDS011;4218;48.326;14.304;2024-01-30T07:01:28;28.27;;;25.67;;
8361;SDS011;4218;48.326;14.304;2024-01-30T07:04:17;25.73;;;23.23;;
8361;SDS011;4218;48.326;14.304;2024-01-30T07:12:38;27.87;;;25.13;;
8361;SDS011;4218;48.326;14.304;2024-01-30T07:25:38;24.77;;;22.27;;
8361;SDS011;4218;48.326;14.304;2024-01-30T07:28:10;28.40;;;25.60;;
8361;SDS011;4218;48.326;14.304;2024-01-30T07:33:39;29.80;;;26.90;;
8361;SDS011;4218;48.326;14.304;2024-01-30T07:46:48;29.43;;;24.47;;
8361;SDS011;4218;48.326;14.304;2024-01-30T07:49:20;29.70;;;27.03;;
8361;SDS011;4218;48.326;14.304;2024-01-30T07:52:11;32.27;;;29.27;;
8361;SDS011;4218;48.326;14.304;2024-01-30T07:58:14;27.47;;;22.40;;
8361;SDS011;4218;48.326;14.304;2024-01-30T08:00:49;25.43;;;22.83;;
8361;SDS011;4218;48.326;14.304;2024-01-30T08:03:31;24.77;;;22.30;;
8361;SDS011;4218;48.326;14.304;2024-01-30T08:06:17;30.70;;;27.40;;
8361;SDS011;4218;48.326;14.304;2024-01-30T08:08:55;29.10;;;26.13;;
8361;SDS011;4218;48.326;14.304;2024-01-30T08:12:02;33.33;;;24.57;;
8361;SDS011;4218;48.326;14.304;2024-01-30T08:14:55;29.97;;;26.87;;
8361;SDS011;4218;48.326;14.304;2024-01-30T08:18:00;33.20;;;26.27;;
8361;SDS011;4218;48.326;14.304;2024-01-30T08:20:42;42.23;;;29.80;;
8361;SDS011;4218;48.326;14.304;2024-01-30T08:23:42;36.90;;;28.37;;
8361;SDS011;4218;48.326;14.304;2024-01-30T08:26:30;34.57;;;26.07;;
8361;SDS011;4218;48.326;14.304;2024-01-30T08:29:21;39.40;;;28.67;;
8361;SDS011;4218;48.326;14.304;2024-01-30T08:35:14;34.13;;;30.47;;
8361;SDS011;4218;48.326;14.304;2024-01-30T08:37:44;34.93;;;31.33;;
8361;SDS011;4218;48.326;14.304;2024-01-30T08:40:12;49.03;;;44.87;;
8361;SDS011;4218;48.326;14.304;2024-01-30T08:42:39;41.17;;;37.60;;
8361;SDS011;4218;48.326;14.304;2024-01-30T08:45:05;35.30;;;27.90;;
8361;SDS011;4218;48.326;14.304;2024-01-30T08:47:36;25.00;;;22.30;;
8361;SDS011;4218;48.326;14.304;2024-01-30T08:50:02;30.33;;;26.87;;
8361;SDS011;4218;48.326;14.304;2024-01-30T08:52:28;51.67;;;33.07;;
8361;SDS011;4218;48.326;14.304;2024-01-30T08:54:54;61.80;;;39.77;;
8361;SDS011;4218;48.326;14.304;2024-01-30T08:57:20;68.70;;;40.43;;
8361;SDS011;4218;48.326;14.304;2024-01-30T08:59:47;68.97;;;42.00;;
8361;SDS011;4218;48.326;14.304;2024-01-30T09:02:13;69.63;;;41.17;;
8361;SDS011;4218;48.326;14.304;2024-01-30T09:04:41;71.03;;;44.70;;
8361;SDS011;4218;48.326;14.304;2024-01-30T09:07:07;72.50;;;42.97;;
8361;SDS011;4218;48.326;14.304;2024-01-30T09:09:34;71.40;;;44.70;;
8361;SDS011;4218;48.326;14.304;2024-01-30T09:12:01;63.67;;;40.80;;
8361;SDS011;4218;48.326;14.304;2024-01-30T09:14:31;64.43;;;42.00;;
8361;SDS011;4218;48.326;14.304;2024-01-30T09:16:57;65.87;;;39.33;;
8361;SDS011;4218;48.326;14.304;2024-01-30T09:19:23;65.27;;;39.83;;
8361;SDS011;4218;48.326;14.304;2024-01-30T09:21:48;69.60;;;41.33;;
8361;SDS011;4218;48.326;14.304;2024-01-30T09:24:15;66.53;;;40.90;;
8361;SDS011;4218;48.326;14.304;2024-01-30T09:26:41;65.17;;;39.90;;
8361;SDS011;4218;48.326;14.304;2024-01-30T09:29:08;63.27;;;39.27;;
8361;SDS011;4218;48.326;14.304;2024-01-30T09:31:35;58.17;;;37.87;;
8361;SDS011;4218;48.326;14.304;2024-01-30T09:34:01;56.13;;;37.57;;
8361;SDS011;4218;48.326;14.304;2024-01-30T09:36:26;71.60;;;42.17;;
8361;SDS011;4218;48.326;14.304;2024-01-30T09:38:52;63.33;;;38.97;;
8361;SDS011;4218;48.326;14.304;2024-01-30T09:41:18;69.50;;;38.67;;
8361;SDS011;4218;48.326;14.304;2024-01-30T09:43:46;67.43;;;38.97;;
8361;SDS011;4218;48.326;14.304;2024-01-30T09:46:16;66.97;;;39.80;;
8361;SDS011;4218;48.326;14.304;2024-01-30T09:48:46;69.67;;;38.73;;
8361;SDS011;4218;48.326;14.304;2024-01-30T09:51:12;63.07;;;40.70;;
8361;SDS011;4218;48.326;14.304;2024-01-30T09:53:43;58.47;;;38.57;;
8361;SDS011;4218;48.326;14.304;2024-01-30T09:56:09;58.13;;;35.70;;
8361;SDS011;4218;48.326;14.304;2024-01-30T09:58:36;60.80;;;37.63;;
8361;SDS011;4218;48.326;14.304;2024-01-30T10:01:02;55.47;;;39.10;;
8361;SDS011;4218;48.326;14.304;2024-01-30T10:03:27;61.77;;;42.27;;
8361;SDS011;4218;48.326;14.304;2024-01-30T10:05:53;62.57;;;38.93;;
8361;SDS011;4218;48.326;14.304;2024-01-30T10:08:21;63.40;;;37.07;;
8361;SDS011;4218;48.326;14.304;2024-01-30T10:10:47;60.70;;;37.13;;
8361;SDS011;4218;48.326;14.304;2024-01-30T10:13:13;60.07;;;39.83;;
8361;SDS011;4218;48.326;14.304;2024-01-30T10:15:39;65.50;;;40.97;;
8361;SDS011;4218;48.326;14.304;2024-01-30T10:18:05;64.17;;;38.30;;
8361;SDS011;4218;48.326;14.304;2024-01-30T10:20:32;64.33;;;39.77;;
8361;SDS011;4218;48.326;14.304;2024-01-30T10:22:59;58.83;;;38.17;;
8361;SDS011;4218;48.326;14.304;2024-01-30T10:25:30;66.70;;;39.93;;
8361;SDS011;4218;48.326;14.304;2024-01-30T10:27:58;64.33;;;37.33;;
8361;SDS011;4218;48.326;14.304;2024-01-30T10:30:26;51.20;;;35.90;;
8361;SDS011;4218;48.326;14.304;2024-01-30T10:32:52;58.77;;;36.80;;
8361;SDS011;4218;48.326;14.304;2024-01-30T10:35:18;59.87;;;39.30;;
8361;SDS011;4218;48.326;14.304;2024-01-30T10:37:46;51.37;;;34.83;;
8361;SDS011;4218;48.326;14.304;2024-01-30T10:40:13;55.43;;;37.17;;
8361;SDS011;4218;48.326;14.304;2024-01-30T10:42:42;59.90;;;36.73;;
8361;SDS011;4218;48.326;14.304;2024-01-30T10:45:09;54.57;;;35.67;;
8361;SDS011;4218;48.326;14.304;2024-01-30T10:47:57;56.77;;;35.87;;
8361;SDS011;4218;48.326;14.304;2024-01-30T10:50:57;57.27;;;34.77;;
8361;SDS011;4218;48.326;14.304;2024-01-30T10:53:24;49.00;;;32.57;;
8361;SDS011;4218;48.326;14.304;2024-01-30T10:56:03;59.80;;;39.97;;
8361;SDS011;4218;48.326;14.304;2024-01-30T10:58:52;44.27;;;30.77;;
8361;SDS011;4218;48.326;14.304;2024-01-30T11:01:34;45.60;;;34.00;;
8361;SDS011;4218;48.326;14.304;2024-01-30T11:04:03;50.53;;;32.20;;
8361;SDS011;4218;48.326;14.304;2024-01-30T11:06:40;50.20;;;33.47;;
8361;SDS011;4218;48.326;14.304;2024-01-30T11:09:09;45.77;;;32.93;;
8361;SDS011;4218;48.326;14.304;2024-01-30T11:11:58;53.70;;;34.50;;
8361;SDS011;4218;48.326;14.304;2024-01-30T11:14:30;45.93;;;32.10;;
8361;SDS011;4218;48.326;14.304;2024-01-30T11:17:03;49.73;;;32.80;;
8361;SDS011;4218;48.326;14.304;2024-01-30T11:19:38;58.50;;;37.53;;
8361;SDS011;4218;48.326;14.304;2024-01-30T11:22:11;56.97;;;37.03;;
8361;SDS011;4218;48.326;14.304;2024-01-30T11:24:40;55.07;;;34.27;;
8361;SDS011;4218;48.326;14.304;2024-01-30T11:27:10;50.90;;;35.07;;
8361;SDS011;4218;48.326;14.304;2024-01-30T11:29:41;51.57;;;35.43;;
8361;SDS011;4218;48.326;14.304;2024-01-30T11:32:21;47.13;;;34.23;;
8361;SDS011;4218;48.326;14.304;2024-01-30T11:34:51;46.93;;;33.63;;
8361;SDS011;4218;48.326;14.304;2024-01-30T11:37:20;51.53;;;33.73;;
8361;SDS011;4218;48.326;14.304;2024-01-30T11:39:47;43.50;;;33.37;;
8361;SDS011;4218;48.326;14.304;2024-01-30T11:42:19;52.80;;;35.63;;
8361;SDS011;4218;48.326;14.304;2024-01-30T11:44:51;44.43;;;33.30;;
8361;SDS011;4218;48.326;14.304;2024-01-30T11:47:16;40.53;;;30.30;;
8361;SDS011;4218;48.326;14.304;2024-01-30T11:49:46;43.03;;;33.33;;
8361;SDS011;4218;48.326;14.304;2024-01-30T11:52:14;43.90;;;33.10;;
8361;SDS011;4218;48.326;14.304;2024-01-30T11:54:40;41.97;;;30.83;;
8361;SDS011;4218;48.326;14.304;2024-01-30T11:57:06;45.97;;;31.00;;
8361;SDS011;4218;48.326;14.304;2024-01-30T11:59:33;42.40;;;32.87;;
8361;SDS011;4218;48.326;14.304;2024-01-30T12:02:00;40.83;;;30.77;;
8361;SDS011;4218;48.326;14.304;2024-01-30T12:04:31;45.27;;;31.23;;
8361;SDS011;4218;48.326;14.304;2024-01-30T12:06:56;37.17;;;27.57;;
8361;SDS011;4218;48.326;14.304;2024-01-30T12:09:22;38.57;;;26.80;;
8361;SDS011;4218;48.326;14.304;2024-01-30T12:11:50;33.20;;;27.13;;
8361;SDS011;4218;48.326;14.304;2024-01-30T12:14:16;33.70;;;26.93;;
8361;SDS011;4218;48.326;14.304;2024-01-30T12:16:42;37.60;;;30.20;;
8361;SDS011;4218;48.326;14.304;2024-01-30T12:19:08;36.40;;;26.60;;
8361;SDS011;4218;48.326;14.304;2024-01-30T12:21:37;45.10;;;31.40;;
8361;SDS011;4218;48.326;14.304;2024-01-30T12:24:03;37.40;;;29.60;;
8361;SDS011;4218;48.326;14.304;2024-01-30T12:26:32;32.83;;;25.70;;
8361;SDS011;4218;48.326;14.304;2024-01-30T12:28:58;35.83;;;27.10;;
8361;SDS011;4218;48.326;14.304;2024-01-30T12:31:26;32.67;;;27.57;;
8361;SDS011;4218;48.326;14.304;2024-01-30T12:33:59;33.10;;;25.33;;
8361;SDS011;4218;48.326;14.304;2024-01-30T12:36:27;38.17;;;27.00;;
8361;SDS011;4218;48.326;14.304;2024-01-30T12:38:58;34.77;;;28.07;;
8361;SDS011;4218;48.326;14.304;2024-01-30T12:41:26;37.03;;;29.00;;
8361;SDS011;4218;48.326;14.304;2024-01-30T12:43:54;46.80;;;37.13;;
8361;SDS011;4218;48.326;14.304;2024-01-30T12:46:34;43.13;;;33.20;;
8361;SDS011;4218;48.326;14.304;2024-01-30T12:49:03;44.03;;;31.70;;
8361;SDS011;4218;48.326;14.304;2024-01-30T12:51:29;40.30;;;30.50;;
8361;SDS011;4218;48.326;14.304;2024-01-30T12:53:54;41.97;;;29.90;;
8361;SDS011;4218;48.326;14.304;2024-01-30T12:56:21;43.47;;;31.23;;
8361;SDS011;4218;48.326;14.304;2024-01-30T12:58:50;39.90;;;30.00;;
8361;SDS011;4218;48.326;14.304;2024-01-30T13:01:18;36.47;;;28.83;;
8361;SDS011;4218;48.326;14.304;2024-01-30T13:03:44;33.87;;;27.87;;
8361;SDS011;4218;48.326;14.304;2024-01-30T13:06:09;36.73;;;29.97;;
8361;SDS011;4218;48.326;14.304;2024-01-30T13:08:36;35.80;;;29.37;;
8361;SDS011;4218;48.326;14.304;2024-01-30T13:11:02;35.23;;;30.80;;
8361;SDS011;4218;48.326;14.304;2024-01-30T13:13:27;34.00;;;28.20;;
8361;SDS011;4218;48.326;14.304;2024-01-30T13:15:53;33.23;;;26.70;;
8361;SDS011;4218;48.326;14.304;2024-01-30T13:18:21;37.20;;;26.93;;
8361;SDS011;4218;48.326;14.304;2024-01-30T13:20:50;39.67;;;32.37;;
8361;SDS011;4218;48.326;14.304;2024-01-30T13:23:21;35.43;;;29.97;;
8361;SDS011;4218;48.326;14.304;2024-01-30T13:25:48;33.90;;;27.93;;
8361;SDS011;4218;48.326;14.304;2024-01-30T13:28:16;35.03;;;31.23;;
8361;SDS011;4218;48.326;14.304;2024-01-30T13:31:02;40.10;;;30.53;;
8361;SDS011;4218;48.326;14.304;2024-01-30T13:33:28;38.43;;;29.40;;
8361;SDS011;4218;48.326;14.304;2024-01-30T13:35:55;34.20;;;30.30;;
8361;SDS011;4218;48.326;14.304;2024-01-30T13:38:21;41.67;;;32.27;;
8361;SDS011;4218;48.326;14.304;2024-01-30T13:40:47;36.20;;;30.10;;
8361;SDS011;4218;48.326;14.304;2024-01-30T13:43:13;41.23;;;30.17;;
8361;SDS011;4218;48.326;14.304;2024-01-30T13:45:43;42.80;;;32.53;;
8361;SDS011;4218;48.326;14.304;2024-01-30T13:48:12;35.20;;;30.07;;
8361;SDS011;4218;48.326;14.304;2024-01-30T13:50:38;38.17;;;30.33;;
8361;SDS011;4218;48.326;14.304;2024-01-30T13:53:04;36.83;;;30.70;;
8361;SDS011;4218;48.326;14.304;2024-01-30T13:55:31;37.70;;;30.30;;
8361;SDS011;4218;48.326;14.304;2024-01-30T13:57:57;42.50;;;31.23;;
8361;SDS011;4218;48.326;14.304;2024-01-30T14:00:27;39.50;;;31.33;;
8361;SDS011;4218;48.326;14.304;2024-01-30T14:02:53;39.40;;;30.53;;
8361;SDS011;4218;48.326;14.304;2024-01-30T14:05:22;38.73;;;30.07;;
8361;SDS011;4218;48.326;14.304;2024-01-30T14:07:48;40.03;;;30.17;;
8361;SDS011;4218;48.326;14.304;2024-01-30T14:10:16;42.83;;;31.00;;
8361;SDS011;4218;48.326;14.304;2024-01-30T14:12:45;43.87;;;32.63;;
8361;SDS011;4218;48.326;14.304;2024-01-30T14:15:14;40.10;;;32.47;;
8361;SDS011;4218;48.326;14.304;2024-01-30T14:17:44;50.87;;;33.83;;
8361;SDS011;4218;48.326;14.304;2024-01-30T14:20:13;52.50;;;33.90;;
8361;SDS011;4218;48.326;14.304;2024-01-30T14:22:41;55.67;;;38.33;;
8361;SDS011;4218;48.326;14.304;2024-01-30T14:25:08;59.10;;;38.87;;
8361;SDS011;4218;48.326;14.304;2024-01-30T14:27:37;51.43;;;35.03;;
8361;SDS011;4218;48.326;14.304;2024-01-30T14:30:03;54.20;;;37.13;;
8361;SDS011;4218;48.326;14.304;2024-01-30T14:32:29;65.00;;;39.87;;
8361;SDS011;4218;48.326;14.304;2024-01-30T14:34:55;66.50;;;40.90;;
8361;SDS011;4218;48.326;14.304;2024-01-30T14:37:21;73.57;;;40.20;;
8361;SDS011;4218;48.326;14.304;2024-01-30T14:39:48;63.73;;;39.93;;
8361;SDS011;4218;48.326;14.304;2024-01-30T14:42:16;58.90;;;37.80;;
8361;SDS011;4218;48.326;14.304;2024-01-30T14:44:43;62.83;;;36.93;;
8361;SDS011;4218;48.326;14.304;2024-01-30T14:47:09;54.50;;;37.23;;
8361;SDS011;4218;48.326;14.304;2024-01-30T14:49:38;58.03;;;37.60;;
8361;SDS011;4218;48.326;14.304;2024-01-30T14:52:05;60.13;;;36.97;;
8361;SDS011;4218;48.326;14.304;2024-01-30T14:54:31;54.33;;;35.33;;
8361;SDS011;4218;48.326;14.304;2024-01-30T14:57:00;58.30;;;39.73;;
8361;SDS011;4218;48.326;14.304;2024-01-30T14:59:39;58.30;;;38.67;;
8361;SDS011;4218;48.326;14.304;2024-01-30T15:02:06;58.37;;;39.63;;
8361;SDS011;4218;48.326;14.304;2024-01-30T15:04:33;58.63;;;38.10;;
8361;SDS011;4218;48.326;14.304;2024-01-30T15:07:00;55.70;;;36.57;;
8361;SDS011;4218;48.326;14.304;2024-01-30T15:09:28;56.23;;;38.97;;
8361;SDS011;4218;48.326;14.304;2024-01-30T15:11:54;59.23;;;37.73;;
8361;SDS011;4218;48.326;14.304;2024-01-30T15:14:20;62.57;;;39.23;;
8361;SDS011;4218;48.326;14.304;2024-01-30T15:16:46;56.37;;;37.97;;
8361;SDS011;4218;48.326;14.304;2024-01-30T15:19:11;60.37;;;42.20;;
8361;SDS011;4218;48.326;14.304;2024-01-30T15:21:38;77.03;;;45.47;;
8361;SDS011;4218;48.326;14.304;2024-01-30T15:24:05;60.07;;;37.67;;
8361;SDS011;4218;48.326;14.304;2024-01-30T15:26:31;68.30;;;40.70;;
8361;SDS011;4218;48.326;14.304;2024-01-30T15:29:01;78.77;;;43.43;;
8361;SDS011;4218;48.326;14.304;2024-01-30T15:31:28;70.40;;;46.70;;
8361;SDS011;4218;48.326;14.304;2024-01-30T15:33:58;67.47;;;39.30;;
8361;SDS011;4218;48.326;14.304;2024-01-30T15:36:25;66.83;;;40.17;;
8361;SDS011;4218;48.326;14.304;2024-01-30T15:39:02;72.90;;;40.07;;
8361;SDS011;4218;48.326;14.304;2024-01-30T15:41:30;79.83;;;42.73;;
8361;SDS011;4218;48.326;14.304;2024-01-30T15:43:58;74.20;;;42.50;;
8361;SDS011;4218;48.326;14.304;2024-01-30T15:46:27;73.40;;;42.17;;
8361;SDS011;4218;48.326;14.304;2024-01-30T15:48:54;62.90;;;41.00;;
8361;SDS011;4218;48.326;14.304;2024-01-30T15:51:19;59.47;;;38.10;;
8361;SDS011;4218;48.326;14.304;2024-01-30T15:53:46;62.73;;;39.87;;
8361;SDS011;4218;48.326;14.304;2024-01-30T15:56:12;63.57;;;38.83;;
8361;SDS011;4218;48.326;14.304;2024-01-30T15:58:46;69.47;;;39.03;;
8361;SDS011;4218;48.326;14.304;2024-01-30T16:01:14;65.60;;;38.03;;
